sensor_id;sensor_type;location;lat;lon;timestamp;temperature;humidity
42227;DHT22;27892;52.378;13.122;2023-06-22T00:00:53;23.60;70.30
42227;DHT22;27892;52.378;13.122;2023-06-22T00:03:20;23.60;70.30
42227;DHT22;27892;52.378;13.122;2023-06-22T00:05:47;23.50;70.40
42227;DHT22;27892;52.378;13.122;2023-06-22T00:08:14;23.50;70.50
42227;DHT22;27892;52.378;13.122;2023-06-22T00:10:40;23.50;70.60
42227;DHT22;27892;52.378;13.122;2023-06-22T00:13:08;23.40;70.60
42227;DHT22;27892;52.378;13.122;2023-06-22T00:15:34;23.40;70.60
42227;DHT22;27892;52.378;13.122;2023-06-22T00:18:00;23.40;70.50
42227;DHT22;27892;52.378;13.122;2023-06-22T00:20:26;23.40;70.60
42227;DHT22;27892;52.378;13.122;2023-06-22T00:22:59;23.30;70.80
42227;DHT22;27892;52.378;13.122;2023-06-22T00:25:25;23.30;70.90
42227;DHT22;27892;52.378;13.122;2023-06-22T00:27:51;23.30;70.90
42227;DHT22;27892;52.378;13.122;2023-06-22T00:30:17;23.30;70.80
42227;DHT22;27892;52.378;13.122;2023-06-22T00:32:44;23.30;70.80
42227;DHT22;27892;52.378;13.122;2023-06-22T00:35:11;23.30;71.00
42227;DHT22;27892;52.378;13.122;2023-06-22T00:37:38;23.30;70.80
42227;DHT22;27892;52.378;13.122;2023-06-22T00:40:06;23.30;71.70
42227;DHT22;27892;52.378;13.122;2023-06-22T00:42:34;23.30;71.10
42227;DHT22;27892;52.378;13.122;2023-06-22T00:44:59;23.30;71.30
42227;DHT22;27892;52.378;13.122;2023-06-22T00:47:25;23.40;71.30
42227;DHT22;27892;52.378;13.122;2023-06-22T00:49:52;23.40;71.30
42227;DHT22;27892;52.378;13.122;2023-06-22T00:52:20;23.40;71.20
42227;DHT22;27892;52.378;13.122;2023-06-22T00:54:51;23.40;71.20
42227;DHT22;27892;52.378;13.122;2023-06-22T00:57:17;23.40;71.60
42227;DHT22;27892;52.378;13.122;2023-06-22T00:59:48;23.40;71.70
42227;DHT22;27892;52.378;13.122;2023-06-22T01:02:14;23.40;71.80
42227;DHT22;27892;52.378;13.122;2023-06-22T01:04:40;23.40;71.50
42227;DHT22;27892;52.378;13.122;2023-06-22T01:10:07;23.30;71.70
42227;DHT22;27892;52.378;13.122;2023-06-22T01:12:40;23.40;71.90
42227;DHT22;27892;52.378;13.122;2023-06-22T01:15:13;23.40;71.80
42227;DHT22;27892;52.378;13.122;2023-06-22T01:17:41;23.30;71.70
42227;DHT22;27892;52.378;13.122;2023-06-22T01:20:09;23.30;71.60
42227;DHT22;27892;52.378;13.122;2023-06-22T01:23:09;23.30;72.00
42227;DHT22;27892;52.378;13.122;2023-06-22T01:25:53;23.30;72.40
42227;DHT22;27892;52.378;13.122;2023-06-22T01:28:41;23.30;72.50
42227;DHT22;27892;52.378;13.122;2023-06-22T01:31:08;23.30;72.90
42227;DHT22;27892;52.378;13.122;2023-06-22T01:33:39;23.30;72.60
42227;DHT22;27892;52.378;13.122;2023-06-22T01:36:06;23.30;72.60
42227;DHT22;27892;52.378;13.122;2023-06-22T01:38:33;23.30;72.90
42227;DHT22;27892;52.378;13.122;2023-06-22T01:41:00;23.40;73.20
42227;DHT22;27892;52.378;13.122;2023-06-22T01:43:27;23.40;73.40
42227;DHT22;27892;52.378;13.122;2023-06-22T01:45:54;23.40;73.30
42227;DHT22;27892;52.378;13.122;2023-06-22T01:48:21;23.50;73.60
42227;DHT22;27892;52.378;13.122;2023-06-22T01:50:48;23.50;73.40
42227;DHT22;27892;52.378;13.122;2023-06-22T01:53:13;23.50;73.40
42227;DHT22;27892;52.378;13.122;2023-06-22T01:55:39;23.50;73.30
42227;DHT22;27892;52.378;13.122;2023-06-22T01:58:05;23.50;73.10
42227;DHT22;27892;52.378;13.122;2023-06-22T02:00:34;23.50;73.00
42227;DHT22;27892;52.378;13.122;2023-06-22T02:03:10;23.50;73.00
42227;DHT22;27892;52.378;13.122;2023-06-22T02:05:54;23.50;72.70
42227;DHT22;27892;52.378;13.122;2023-06-22T02:08:23;23.50;73.00
42227;DHT22;27892;52.378;13.122;2023-06-22T02:10:52;23.40;72.70
42227;DHT22;27892;52.378;13.122;2023-06-22T02:13:19;23.30;72.90
42227;DHT22;27892;52.378;13.122;2023-06-22T02:15:46;23.30;73.00
42227;DHT22;27892;52.378;13.122;2023-06-22T02:18:13;23.30;73.20
42227;DHT22;27892;52.378;13.122;2023-06-22T02:20:39;23.40;73.30
42227;DHT22;27892;52.378;13.122;2023-06-22T02:23:06;23.40;73.30
42227;DHT22;27892;52.378;13.122;2023-06-22T02:25:32;23.40;73.30
42227;DHT22;27892;52.378;13.122;2023-06-22T02:27:58;23.40;73.00
42227;DHT22;27892;52.378;13.122;2023-06-22T02:30:24;23.40;73.10
42227;DHT22;27892;52.378;13.122;2023-06-22T02:32:49;23.40;73.30
42227;DHT22;27892;52.378;13.122;2023-06-22T02:35:28;23.40;73.10
42227;DHT22;27892;52.378;13.122;2023-06-22T02:38:00;23.50;73.00
42227;DHT22;27892;52.378;13.122;2023-06-22T02:40:26;23.50;72.70
42227;DHT22;27892;52.378;13.122;2023-06-22T02:42:52;23.50;72.30
42227;DHT22;27892;52.378;13.122;2023-06-22T02:45:18;23.60;72.40
42227;DHT22;27892;52.378;13.122;2023-06-22T02:47:44;23.60;72.40
42227;DHT22;27892;52.378;13.122;2023-06-22T02:50:10;23.60;72.40
42227;DHT22;27892;52.378;13.122;2023-06-22T02:52:35;23.60;72.30
42227;DHT22;27892;52.378;13.122;2023-06-22T02:55:01;23.60;72.20
42227;DHT22;27892;52.378;13.122;2023-06-22T02:57:27;23.60;72.10
42227;DHT22;27892;52.378;13.122;2023-06-22T02:59:52;23.50;72.00
42227;DHT22;27892;52.378;13.122;2023-06-22T03:02:18;23.50;72.00
42227;DHT22;27892;52.378;13.122;2023-06-22T03:04:47;23.50;72.00
42227;DHT22;27892;52.378;13.122;2023-06-22T03:07:15;23.50;72.10
42227;DHT22;27892;52.378;13.122;2023-06-22T03:09:42;23.50;72.00
42227;DHT22;27892;52.378;13.122;2023-06-22T03:12:08;23.60;71.90
42227;DHT22;27892;52.378;13.122;2023-06-22T03:14:34;23.60;71.90
42227;DHT22;27892;52.378;13.122;2023-06-22T03:17:00;23.70;71.80
42227;DHT22;27892;52.378;13.122;2023-06-22T03:19:29;23.70;71.30
42227;DHT22;27892;52.378;13.122;2023-06-22T03:21:57;23.70;71.20
42227;DHT22;27892;52.378;13.122;2023-06-22T03:24:23;23.80;71.20
42227;DHT22;27892;52.378;13.122;2023-06-22T03:26:48;23.80;71.00
42227;DHT22;27892;52.378;13.122;2023-06-22T03:29:14;23.80;70.90
42227;DHT22;27892;52.378;13.122;2023-06-22T03:31:41;23.80;70.90
42227;DHT22;27892;52.378;13.122;2023-06-22T03:34:06;23.80;71.00
42227;DHT22;27892;52.378;13.122;2023-06-22T03:36:32;23.80;71.00
42227;DHT22;27892;52.378;13.122;2023-06-22T03:38:58;23.80;71.10
42227;DHT22;27892;52.378;13.122;2023-06-22T03:41:23;23.80;71.10
42227;DHT22;27892;52.378;13.122;2023-06-22T03:43:49;23.80;71.50
42227;DHT22;27892;52.378;13.122;2023-06-22T03:46:15;23.70;71.60
42227;DHT22;27892;52.378;13.122;2023-06-22T03:48:40;23.80;71.60
42227;DHT22;27892;52.378;13.122;2023-06-22T03:51:06;23.80;71.30
42227;DHT22;27892;52.378;13.122;2023-06-22T03:53:32;23.80;71.30
42227;DHT22;27892;52.378;13.122;2023-06-22T03:55:57;23.80;71.10
42227;DHT22;27892;52.378;13.122;2023-06-22T03:58:23;23.80;71.00
42227;DHT22;27892;52.378;13.122;2023-06-22T04:00:53;23.80;70.60
42227;DHT22;27892;52.378;13.122;2023-06-22T04:03:19;23.80;71.00
42227;DHT22;27892;52.378;13.122;2023-06-22T04:05:45;23.70;71.20
42227;DHT22;27892;52.378;13.122;2023-06-22T04:08:13;23.70;71.10
42227;DHT22;27892;52.378;13.122;2023-06-22T04:10:39;23.80;71.70
42227;DHT22;27892;52.378;13.122;2023-06-22T04:13:04;23.90;71.20
42227;DHT22;27892;52.378;13.122;2023-06-22T04:15:30;23.90;71.10
42227;DHT22;27892;52.378;13.122;2023-06-22T04:17:56;24.00;71.00
42227;DHT22;27892;52.378;13.122;2023-06-22T04:20:23;24.00;70.70
42227;DHT22;27892;52.378;13.122;2023-06-22T04:22:54;24.10;70.60
42227;DHT22;27892;52.378;13.122;2023-06-22T04:25:19;24.10;70.40
42227;DHT22;27892;52.378;13.122;2023-06-22T04:27:45;24.20;71.10
42227;DHT22;27892;52.378;13.122;2023-06-22T04:30:11;24.20;70.00
42227;DHT22;27892;52.378;13.122;2023-06-22T04:32:40;24.20;70.20
42227;DHT22;27892;52.378;13.122;2023-06-22T04:35:06;24.30;70.10
42227;DHT22;27892;52.378;13.122;2023-06-22T04:37:33;24.50;70.40
42227;DHT22;27892;52.378;13.122;2023-06-22T04:39:59;24.70;70.20
42227;DHT22;27892;52.378;13.122;2023-06-22T04:42:28;24.90;68.90
42227;DHT22;27892;52.378;13.122;2023-06-22T04:44:54;25.00;68.20
42227;DHT22;27892;52.378;13.122;2023-06-22T04:47:20;25.10;67.80
42227;DHT22;27892;52.378;13.122;2023-06-22T04:49:45;25.00;66.80
42227;DHT22;27892;52.378;13.122;2023-06-22T04:52:12;25.00;66.60
42227;DHT22;27892;52.378;13.122;2023-06-22T04:54:40;25.00;66.70
42227;DHT22;27892;52.378;13.122;2023-06-22T04:57:13;25.00;67.10
42227;DHT22;27892;52.378;13.122;2023-06-22T04:59:41;24.90;66.90
42227;DHT22;27892;52.378;13.122;2023-06-22T05:02:07;25.10;68.20
42227;DHT22;27892;52.378;13.122;2023-06-22T05:04:34;25.30;66.50
42227;DHT22;27892;52.378;13.122;2023-06-22T05:07:02;25.00;65.10
42227;DHT22;27892;52.378;13.122;2023-06-22T05:09:28;25.10;66.00
42227;DHT22;27892;52.378;13.122;2023-06-22T05:11:54;25.10;65.40
42227;DHT22;27892;52.378;13.122;2023-06-22T05:14:21;25.10;65.20
42227;DHT22;27892;52.378;13.122;2023-06-22T05:16:48;25.10;64.70
42227;DHT22;27892;52.378;13.122;2023-06-22T05:19:13;25.20;65.10
42227;DHT22;27892;52.378;13.122;2023-06-22T05:21:39;25.50;64.50
42227;DHT22;27892;52.378;13.122;2023-06-22T05:24:05;25.60;64.50
42227;DHT22;27892;52.378;13.122;2023-06-22T05:26:32;25.60;63.50
42227;DHT22;27892;52.378;13.122;2023-06-22T05:28:59;25.80;63.10
42227;DHT22;27892;52.378;13.122;2023-06-22T05:31:26;26.00;62.80
42227;DHT22;27892;52.378;13.122;2023-06-22T05:33:53;26.10;62.50
42227;DHT22;27892;52.378;13.122;2023-06-22T05:36:19;26.10;61.00
42227;DHT22;27892;52.378;13.122;2023-06-22T05:38:45;26.30;61.70
42227;DHT22;27892;52.378;13.122;2023-06-22T05:41:11;26.50;61.30
42227;DHT22;27892;52.378;13.122;2023-06-22T05:43:37;26.80;60.80
42227;DHT22;27892;52.378;13.122;2023-06-22T05:46:04;26.90;58.70
42227;DHT22;27892;52.378;13.122;2023-06-22T05:48:30;26.90;58.30
42227;DHT22;27892;52.378;13.122;2023-06-22T05:50:55;26.90;58.70
42227;DHT22;27892;52.378;13.122;2023-06-22T05:53:21;27.00;58.50
42227;DHT22;27892;52.378;13.122;2023-06-22T05:55:47;27.10;58.60
42227;DHT22;27892;52.378;13.122;2023-06-22T05:58:13;27.00;56.80
42227;DHT22;27892;52.378;13.122;2023-06-22T06:00:39;27.10;57.60
42227;DHT22;27892;52.378;13.122;2023-06-22T06:03:06;26.90;55.10
42227;DHT22;27892;52.378;13.122;2023-06-22T06:05:33;26.90;55.70
42227;DHT22;27892;52.378;13.122;2023-06-22T06:08:00;27.20;55.10
42227;DHT22;27892;52.378;13.122;2023-06-22T06:10:26;27.40;53.40
42227;DHT22;27892;52.378;13.122;2023-06-22T06:12:52;27.50;53.50
42227;DHT22;27892;52.378;13.122;2023-06-22T06:15:18;28.20;52.90
42227;DHT22;27892;52.378;13.122;2023-06-22T06:17:51;29.10;50.70
42227;DHT22;27892;52.378;13.122;2023-06-22T06:20:22;29.60;48.70
42227;DHT22;27892;52.378;13.122;2023-06-22T06:22:49;29.50;48.40
42227;DHT22;27892;52.378;13.122;2023-06-22T06:25:14;29.00;49.10
42227;DHT22;27892;52.378;13.122;2023-06-22T06:27:50;28.80;50.30
42227;DHT22;27892;52.378;13.122;2023-06-22T06:30:17;28.40;49.60
42227;DHT22;27892;52.378;13.122;2023-06-22T06:32:44;28.40;50.50
42227;DHT22;27892;52.378;13.122;2023-06-22T06:35:11;29.50;51.60
42227;DHT22;27892;52.378;13.122;2023-06-22T06:37:42;30.50;47.40
42227;DHT22;27892;52.378;13.122;2023-06-22T06:40:09;31.60;44.70
42227;DHT22;27892;52.378;13.122;2023-06-22T06:42:39;32.50;44.30
42227;DHT22;27892;52.378;13.122;2023-06-22T06:45:15;32.80;43.70
42227;DHT22;27892;52.378;13.122;2023-06-22T06:47:41;33.60;42.70
42227;DHT22;27892;52.378;13.122;2023-06-22T06:50:07;34.10;40.80
42227;DHT22;27892;52.378;13.122;2023-06-22T06:52:33;34.80;39.60
42227;DHT22;27892;52.378;13.122;2023-06-22T06:54:59;35.30;39.20
42227;DHT22;27892;52.378;13.122;2023-06-22T06:57:25;36.20;38.20
42227;DHT22;27892;52.378;13.122;2023-06-22T06:59:54;36.60;34.50
42227;DHT22;27892;52.378;13.122;2023-06-22T07:02:21;36.90;34.30
42227;DHT22;27892;52.378;13.122;2023-06-22T07:04:47;36.70;32.80
42227;DHT22;27892;52.378;13.122;2023-06-22T07:07:13;36.30;32.30
42227;DHT22;27892;52.378;13.122;2023-06-22T07:09:39;37.10;33.90
42227;DHT22;27892;52.378;13.122;2023-06-22T07:12:05;36.60;32.50
42227;DHT22;27892;52.378;13.122;2023-06-22T07:14:31;34.90;32.60
42227;DHT22;27892;52.378;13.122;2023-06-22T07:16:57;34.20;34.00
42227;DHT22;27892;52.378;13.122;2023-06-22T07:19:27;33.40;35.50
42227;DHT22;27892;52.378;13.122;2023-06-22T07:21:53;33.00;36.90
42227;DHT22;27892;52.378;13.122;2023-06-22T07:24:23;32.60;35.90
42227;DHT22;27892;52.378;13.122;2023-06-22T07:26:50;32.40;36.50
42227;DHT22;27892;52.378;13.122;2023-06-22T07:29:17;32.30;37.80
42227;DHT22;27892;52.378;13.122;2023-06-22T07:31:43;33.10;38.30
42227;DHT22;27892;52.378;13.122;2023-06-22T07:34:09;33.00;36.20
42227;DHT22;27892;52.378;13.122;2023-06-22T07:36:34;32.90;37.80
42227;DHT22;27892;52.378;13.122;2023-06-22T07:39:04;32.20;37.90
42227;DHT22;27892;52.378;13.122;2023-06-22T07:41:30;31.60;38.20
42227;DHT22;27892;52.378;13.122;2023-06-22T07:43:56;30.60;39.50
42227;DHT22;27892;52.378;13.122;2023-06-22T07:46:22;30.20;41.20
42227;DHT22;27892;52.378;13.122;2023-06-22T07:48:48;30.10;42.20
42227;DHT22;27892;52.378;13.122;2023-06-22T07:51:14;30.10;42.20
42227;DHT22;27892;52.378;13.122;2023-06-22T07:53:43;29.90;42.60
42227;DHT22;27892;52.378;13.122;2023-06-22T07:56:13;29.60;43.00
42227;DHT22;27892;52.378;13.122;2023-06-22T07:58:44;29.40;43.60
42227;DHT22;27892;52.378;13.122;2023-06-22T08:01:10;29.40;44.00
42227;DHT22;27892;52.378;13.122;2023-06-22T08:03:36;29.50;44.10
42227;DHT22;27892;52.378;13.122;2023-06-22T08:06:02;29.60;44.60
42227;DHT22;27892;52.378;13.122;2023-06-22T08:08:28;29.70;44.10
42227;DHT22;27892;52.378;13.122;2023-06-22T08:10:54;29.90;44.40
42227;DHT22;27892;52.378;13.122;2023-06-22T08:13:19;29.80;44.00
42227;DHT22;27892;52.378;13.122;2023-06-22T08:15:45;29.50;44.10
42227;DHT22;27892;52.378;13.122;2023-06-22T08:18:11;29.40;44.20
42227;DHT22;27892;52.378;13.122;2023-06-22T08:20:37;29.40;44.30
42227;DHT22;27892;52.378;13.122;2023-06-22T08:23:03;29.20;43.60
42227;DHT22;27892;52.378;13.122;2023-06-22T08:25:32;29.30;44.60
42227;DHT22;27892;52.378;13.122;2023-06-22T08:28:00;29.60;44.70
42227;DHT22;27892;52.378;13.122;2023-06-22T08:30:26;29.60;43.00
42227;DHT22;27892;52.378;13.122;2023-06-22T08:32:51;29.70;43.20
42227;DHT22;27892;52.378;13.122;2023-06-22T08:35:17;29.50;43.30
42227;DHT22;27892;52.378;13.122;2023-06-22T08:37:43;29.60;43.30
42227;DHT22;27892;52.378;13.122;2023-06-22T08:40:09;29.50;43.00
42227;DHT22;27892;52.378;13.122;2023-06-22T08:42:40;29.60;43.30
42227;DHT22;27892;52.378;13.122;2023-06-22T08:45:07;29.70;41.90
42227;DHT22;27892;52.378;13.122;2023-06-22T08:47:33;30.20;42.90
42227;DHT22;27892;52.378;13.122;2023-06-22T08:49:58;30.50;40.60
42227;DHT22;27892;52.378;13.122;2023-06-22T08:52:25;30.90;41.00
42227;DHT22;27892;52.378;13.122;2023-06-22T08:54:50;30.80;39.40
42227;DHT22;27892;52.378;13.122;2023-06-22T08:57:16;30.60;39.50
42227;DHT22;27892;52.378;13.122;2023-06-22T08:59:42;30.70;38.00
42227;DHT22;27892;52.378;13.122;2023-06-22T09:02:08;30.50;38.60
42227;DHT22;27892;52.378;13.122;2023-06-22T09:04:34;30.60;38.00
42227;DHT22;27892;52.378;13.122;2023-06-22T09:07:01;30.50;38.70
42227;DHT22;27892;52.378;13.122;2023-06-22T09:09:27;30.10;38.40
42227;DHT22;27892;52.378;13.122;2023-06-22T09:11:52;30.10;37.80
42227;DHT22;27892;52.378;13.122;2023-06-22T09:14:18;29.80;38.40
42227;DHT22;27892;52.378;13.122;2023-06-22T09:16:44;30.00;38.90
42227;DHT22;27892;52.378;13.122;2023-06-22T09:19:10;29.80;39.50
42227;DHT22;27892;52.378;13.122;2023-06-22T09:21:36;29.90;40.00
42227;DHT22;27892;52.378;13.122;2023-06-22T09:24:02;29.50;38.60
42227;DHT22;27892;52.378;13.122;2023-06-22T09:26:28;29.80;39.90
42227;DHT22;27892;52.378;13.122;2023-06-22T09:28:54;29.80;38.70
42227;DHT22;27892;52.378;13.122;2023-06-22T09:31:20;29.70;39.60
42227;DHT22;27892;52.378;13.122;2023-06-22T09:33:54;30.10;40.50
42227;DHT22;27892;52.378;13.122;2023-06-22T09:36:21;30.50;41.20
42227;DHT22;27892;52.378;13.122;2023-06-22T09:38:47;30.60;40.20
42227;DHT22;27892;52.378;13.122;2023-06-22T09:41:13;30.80;39.80
42227;DHT22;27892;52.378;13.122;2023-06-22T09:43:39;30.90;39.70
42227;DHT22;27892;52.378;13.122;2023-06-22T09:46:04;31.00;40.40
42227;DHT22;27892;52.378;13.122;2023-06-22T09:48:31;31.00;39.60
42227;DHT22;27892;52.378;13.122;2023-06-22T09:50:57;31.00;40.30
42227;DHT22;27892;52.378;13.122;2023-06-22T09:53:22;30.90;40.00
42227;DHT22;27892;52.378;13.122;2023-06-22T09:55:48;31.00;40.10
42227;DHT22;27892;52.378;13.122;2023-06-22T09:58:14;31.00;40.70
42227;DHT22;27892;52.378;13.122;2023-06-22T10:00:39;31.10;40.40
42227;DHT22;27892;52.378;13.122;2023-06-22T10:03:07;31.00;40.30
42227;DHT22;27892;52.378;13.122;2023-06-22T10:05:33;30.80;39.80
42227;DHT22;27892;52.378;13.122;2023-06-22T10:07:58;30.50;40.00
42227;DHT22;27892;52.378;13.122;2023-06-22T10:10:24;30.50;41.40
42227;DHT22;27892;52.378;13.122;2023-06-22T10:12:57;30.60;40.10
42227;DHT22;27892;52.378;13.122;2023-06-22T10:15:23;30.70;40.90
42227;DHT22;27892;52.378;13.122;2023-06-22T10:17:50;31.10;41.00
42227;DHT22;27892;52.378;13.122;2023-06-22T10:20:15;31.50;39.90
42227;DHT22;27892;52.378;13.122;2023-06-22T10:22:43;31.80;38.90
42227;DHT22;27892;52.378;13.122;2023-06-22T10:25:11;32.10;38.40
42227;DHT22;27892;52.378;13.122;2023-06-22T10:27:37;32.20;37.80
42227;DHT22;27892;52.378;13.122;2023-06-22T10:30:09;31.90;37.00
42227;DHT22;27892;52.378;13.122;2023-06-22T10:32:37;32.00;38.20
42227;DHT22;27892;52.378;13.122;2023-06-22T10:35:03;32.40;38.00
42227;DHT22;27892;52.378;13.122;2023-06-22T10:37:28;32.50;36.60
42227;DHT22;27892;52.378;13.122;2023-06-22T10:39:54;32.70;37.40
42227;DHT22;27892;52.378;13.122;2023-06-22T10:42:20;33.20;38.20
42227;DHT22;27892;52.378;13.122;2023-06-22T10:44:46;33.50;37.20
42227;DHT22;27892;52.378;13.122;2023-06-22T10:47:12;33.60;36.70
42227;DHT22;27892;52.378;13.122;2023-06-22T10:49:38;33.50;35.40
42227;DHT22;27892;52.378;13.122;2023-06-22T10:52:07;33.70;36.60
42227;DHT22;27892;52.378;13.122;2023-06-22T10:54:34;33.40;35.20
42227;DHT22;27892;52.378;13.122;2023-06-22T10:57:01;33.50;35.80
42227;DHT22;27892;52.378;13.122;2023-06-22T10:59:26;33.50;35.50
42227;DHT22;27892;52.378;13.122;2023-06-22T11:01:53;33.20;35.30
42227;DHT22;27892;52.378;13.122;2023-06-22T11:04:19;33.40;37.20
42227;DHT22;27892;52.378;13.122;2023-06-22T11:06:44;34.00;36.30
42227;DHT22;27892;52.378;13.122;2023-06-22T11:09:10;33.80;35.70
42227;DHT22;27892;52.378;13.122;2023-06-22T11:11:36;33.40;34.70
42227;DHT22;27892;52.378;13.122;2023-06-22T11:14:01;33.30;36.40
42227;DHT22;27892;52.378;13.122;2023-06-22T11:16:27;33.60;35.10
42227;DHT22;27892;52.378;13.122;2023-06-22T11:18:53;33.70;35.10
42227;DHT22;27892;52.378;13.122;2023-06-22T11:21:19;33.60;34.40
42227;DHT22;27892;52.378;13.122;2023-06-22T11:23:45;33.70;34.70
42227;DHT22;27892;52.378;13.122;2023-06-22T11:26:11;33.80;35.40
42227;DHT22;27892;52.378;13.122;2023-06-22T11:28:36;33.80;34.20
42227;DHT22;27892;52.378;13.122;2023-06-22T11:31:02;33.80;34.80
42227;DHT22;27892;52.378;13.122;2023-06-22T11:33:28;33.50;34.20
42227;DHT22;27892;52.378;13.122;2023-06-22T11:35:54;33.70;35.40
42227;DHT22;27892;52.378;13.122;2023-06-22T11:38:21;33.80;33.70
42227;DHT22;27892;52.378;13.122;2023-06-22T11:40:47;34.20;33.90
42227;DHT22;27892;52.378;13.122;2023-06-22T11:43:13;34.30;33.80
42227;DHT22;27892;52.378;13.122;2023-06-22T11:45:40;34.30;33.40
42227;DHT22;27892;52.378;13.122;2023-06-22T11:48:06;34.50;33.60
42227;DHT22;27892;52.378;13.122;2023-06-22T11:50:32;34.80;33.10
42227;DHT22;27892;52.378;13.122;2023-06-22T11:53:02;35.00;33.20
42227;DHT22;27892;52.378;13.122;2023-06-22T11:55:28;34.60;30.90
42227;DHT22;27892;52.378;13.122;2023-06-22T11:57:55;34.50;31.60
42227;DHT22;27892;52.378;13.122;2023-06-22T12:00:21;34.20;32.50
42227;DHT22;27892;52.378;13.122;2023-06-22T12:02:50;34.10;31.80
42227;DHT22;27892;52.378;13.122;2023-06-22T12:05:18;34.30;33.10
42227;DHT22;27892;52.378;13.122;2023-06-22T12:07:44;34.20;32.00
42227;DHT22;27892;52.378;13.122;2023-06-22T12:10:10;34.10;32.50
42227;DHT22;27892;52.378;13.122;2023-06-22T12:12:35;34.40;32.30
42227;DHT22;27892;52.378;13.122;2023-06-22T12:15:01;34.60;31.60
42227;DHT22;27892;52.378;13.122;2023-06-22T12:17:29;34.60;30.90
42227;DHT22;27892;52.378;13.122;2023-06-22T12:19:55;34.00;31.60
42227;DHT22;27892;52.378;13.122;2023-06-22T12:22:21;33.90;32.30
42227;DHT22;27892;52.378;13.122;2023-06-22T12:24:47;34.00;32.40
42227;DHT22;27892;52.378;13.122;2023-06-22T12:27:12;34.30;32.90
42227;DHT22;27892;52.378;13.122;2023-06-22T12:29:38;34.60;32.30
42227;DHT22;27892;52.378;13.122;2023-06-22T12:32:04;35.00;33.00
42227;DHT22;27892;52.378;13.122;2023-06-22T12:34:30;35.40;32.50
42227;DHT22;27892;52.378;13.122;2023-06-22T12:36:55;35.60;31.20
42227;DHT22;27892;52.378;13.122;2023-06-22T12:39:21;35.60;31.00
42227;DHT22;27892;52.378;13.122;2023-06-22T12:41:46;35.10;30.80
42227;DHT22;27892;52.378;13.122;2023-06-22T12:44:12;35.10;30.80
42227;DHT22;27892;52.378;13.122;2023-06-22T12:46:38;34.90;30.80
42227;DHT22;27892;52.378;13.122;2023-06-22T12:49:04;34.40;30.60
42227;DHT22;27892;52.378;13.122;2023-06-22T12:51:30;34.60;31.00
42227;DHT22;27892;52.378;13.122;2023-06-22T12:53:56;34.70;30.80
42227;DHT22;27892;52.378;13.122;2023-06-22T12:56:22;34.80;31.70
42227;DHT22;27892;52.378;13.122;2023-06-22T12:58:47;35.20;30.40
42227;DHT22;27892;52.378;13.122;2023-06-22T13:01:13;35.50;30.90
42227;DHT22;27892;52.378;13.122;2023-06-22T13:03:40;34.90;29.80
42227;DHT22;27892;52.378;13.122;2023-06-22T13:06:06;34.70;30.10
42227;DHT22;27892;52.378;13.122;2023-06-22T13:08:32;34.10;31.10
42227;DHT22;27892;52.378;13.122;2023-06-22T13:10:58;34.10;32.00
42227;DHT22;27892;52.378;13.122;2023-06-22T13:13:25;34.60;32.30
42227;DHT22;27892;52.378;13.122;2023-06-22T13:15:52;35.20;31.30
42227;DHT22;27892;52.378;13.122;2023-06-22T13:18:18;35.60;30.60
42227;DHT22;27892;52.378;13.122;2023-06-22T13:20:44;35.60;30.00
42227;DHT22;27892;52.378;13.122;2023-06-22T13:23:11;35.80;30.30
42227;DHT22;27892;52.378;13.122;2023-06-22T13:25:37;36.30;30.90
42227;DHT22;27892;52.378;13.122;2023-06-22T13:28:02;36.90;30.20
42227;DHT22;27892;52.378;13.122;2023-06-22T13:30:28;37.40;29.30
42227;DHT22;27892;52.378;13.122;2023-06-22T13:32:54;37.70;29.40
42227;DHT22;27892;52.378;13.122;2023-06-22T13:35:20;37.20;28.70
42227;DHT22;27892;52.378;13.122;2023-06-22T13:37:45;37.80;29.40
42227;DHT22;27892;52.378;13.122;2023-06-22T13:40:11;37.80;28.30
42227;DHT22;27892;52.378;13.122;2023-06-22T13:42:37;38.10;29.40
42227;DHT22;27892;52.378;13.122;2023-06-22T13:45:03;38.70;29.00
42227;DHT22;27892;52.378;13.122;2023-06-22T13:47:30;39.10;27.80
42227;DHT22;27892;52.378;13.122;2023-06-22T13:49:56;39.10;27.60
42227;DHT22;27892;52.378;13.122;2023-06-22T13:52:23;39.10;26.80
42227;DHT22;27892;52.378;13.122;2023-06-22T13:54:49;39.30;27.30
42227;DHT22;27892;52.378;13.122;2023-06-22T13:57:17;39.40;26.90
42227;DHT22;27892;52.378;13.122;2023-06-22T13:59:43;39.30;26.10
42227;DHT22;27892;52.378;13.122;2023-06-22T14:02:08;38.70;26.90
42227;DHT22;27892;52.378;13.122;2023-06-22T14:04:34;37.90;27.20
42227;DHT22;27892;52.378;13.122;2023-06-22T14:07:00;37.80;27.10
42227;DHT22;27892;52.378;13.122;2023-06-22T14:09:26;37.50;28.10
42227;DHT22;27892;52.378;13.122;2023-06-22T14:11:53;37.80;28.20
42227;DHT22;27892;52.378;13.122;2023-06-22T14:14:19;37.60;27.50
42227;DHT22;27892;52.378;13.122;2023-06-22T14:16:45;37.40;27.50
42227;DHT22;27892;52.378;13.122;2023-06-22T14:19:13;36.10;28.40
42227;DHT22;27892;52.378;13.122;2023-06-22T14:21:39;35.50;28.90
42227;DHT22;27892;52.378;13.122;2023-06-22T14:24:05;35.30;30.00
42227;DHT22;27892;52.378;13.122;2023-06-22T14:26:33;35.60;30.00
42227;DHT22;27892;52.378;13.122;2023-06-22T14:28:59;35.40;29.60
42227;DHT22;27892;52.378;13.122;2023-06-22T14:31:24;35.60;30.40
42227;DHT22;27892;52.378;13.122;2023-06-22T14:33:50;35.70;30.10
42227;DHT22;27892;52.378;13.122;2023-06-22T14:36:17;35.70;29.70
42227;DHT22;27892;52.378;13.122;2023-06-22T14:38:43;35.50;30.00
42227;DHT22;27892;52.378;13.122;2023-06-22T14:41:09;35.40;29.90
42227;DHT22;27892;52.378;13.122;2023-06-22T14:43:34;35.00;30.20
42227;DHT22;27892;52.378;13.122;2023-06-22T14:46:00;34.90;31.20
42227;DHT22;27892;52.378;13.122;2023-06-22T14:48:26;34.40;30.40
42227;DHT22;27892;52.378;13.122;2023-06-22T14:50:53;34.60;31.40
42227;DHT22;27892;52.378;13.122;2023-06-22T14:53:19;34.90;31.40
42227;DHT22;27892;52.378;13.122;2023-06-22T14:55:45;34.90;31.50
42227;DHT22;27892;52.378;13.122;2023-06-22T14:58:11;34.90;31.00
42227;DHT22;27892;52.378;13.122;2023-06-22T15:00:43;34.90;31.20
42227;DHT22;27892;52.378;13.122;2023-06-22T15:03:09;34.60;30.80
42227;DHT22;27892;52.378;13.122;2023-06-22T15:05:42;34.60;31.40
42227;DHT22;27892;52.378;13.122;2023-06-22T15:08:08;34.50;31.50
42227;DHT22;27892;52.378;13.122;2023-06-22T15:10:33;34.30;31.90
42227;DHT22;27892;52.378;13.122;2023-06-22T15:12:59;33.90;31.90
42227;DHT22;27892;52.378;13.122;2023-06-22T15:15:25;33.90;32.00